Řízení letového provozu České republiky
Letiste: LKKB Aktualizace: 13.11.2019 20:00:26  UTC
 METAR LKKB 13.11. 20:00 ...
METAR LKKB 132000Z 19007KT 9999 FEW008 SCT023 BKN070 03/02 Q1005 NOSIG RMK BLU BLU=
 TAF LKKB 13.11. 17:00 ...
TAF LKKB 131700Z 1318/1418 27004KT 9999 SCT012 BKN025      TEMPO 1318/1321 6000 RA SCT008 BKN010      BECMG 1319/1321 20004KT      BECMG 1400/1402 CAVOK      TEMPO 1402/1409 3000 BR      PROB30 TEMPO 1403/1408 0400 MIFG=